»·PEaware :: N978AP L88-KSBP

N978AP :: L88-KSBP

FLIGHT INFORMATION

Flight Status: Arrived
Operator: Privately registered:
United States
More flights under this callsign
Pilot: Ifikratis K. (16819)
Aircraft: CESSNA 172 SKYHAWK
(C172)
More flights by this aircraft type
Origin: L88 New Cuyama
United States
Destination: KSBP San Luis Co Regl
United States
More flights between these airports :: More routes between these airports
Route:
File this flight plan on PilotEdge
Remarks: flying for CAT-02
Altitude:
(Current/Filed)
6,500ft
Speed:
(Current/Filed)
115kts
Departed: 15-May-18 05:46 PM
Arrived: 15-May-18 06:19 PM
Distance/Time
Traveled:
50nm/0:33
Distance/Time
To Go:
Arrived

Flight Plot

Page will automatically refresh every two minutes.


Map Options




Map Legend


Flown Route
Filed Route
Departure Airport
Arrival Airport
Navaid (VOR, NDB)
Fix

Horizontal Profiles

Position Reports

Time Latitude Longitude Heading Altitude Ground
Speed
15-May-18 17:04 34.942797 -119.690372 204 2152ft 0kts
15-May-18 17:05 34.942797 -119.690372 204 2152ft 0kts
15-May-18 17:09 34.942847 -119.690334 204 2152ft 0kts
15-May-18 17:10 34.942847 -119.690334 204 2152ft 0kts
15-May-18 17:11 34.942847 -119.690334 204 2152ft 0kts
15-May-18 17:12 34.942847 -119.690334 204 2152ft 0kts
15-May-18 17:13 34.942847 -119.690334 204 2152ft 0kts
15-May-18 17:14 34.942847 -119.690334 204 2152ft 0kts
15-May-18 17:15 34.942847 -119.690334 204 2152ft 0kts
15-May-18 17:16 34.942847 -119.690334 204 2152ft 0kts
15-May-18 17:17 34.942847 -119.690334 204 2152ft 0kts
15-May-18 17:18 34.942847 -119.690334 204 2152ft 0kts
15-May-18 17:19 34.942847 -119.690334 204 2152ft 0kts
15-May-18 17:20 34.942847 -119.690334 204 2152ft 0kts
15-May-18 17:21 34.942847 -119.690334 204 2152ft 0kts
15-May-18 17:22 34.942847 -119.690334 204 2152ft 0kts
15-May-18 17:23 34.942847 -119.690334 204 2152ft 0kts
15-May-18 17:24 34.942847 -119.690334 204 2152ft 0kts
15-May-18 17:25 34.942847 -119.690334 204 2152ft 0kts
15-May-18 17:26 34.942847 -119.690334 204 2152ft 0kts
15-May-18 17:27 34.942847 -119.690334 204 2152ft 0kts
15-May-18 17:28 34.942847 -119.690334 204 2152ft 0kts
15-May-18 17:29 34.942847 -119.690334 204 2152ft 0kts
15-May-18 17:30 34.942847 -119.690334 204 2152ft 0kts
15-May-18 17:31 34.942847 -119.690334 204 2152ft 0kts
15-May-18 17:32 34.942847 -119.690334 204 2152ft 0kts
15-May-18 17:33 34.942847 -119.690334 204 2152ft 0kts
15-May-18 17:34 34.942847 -119.690334 204 2152ft 0kts
15-May-18 17:35 34.942847 -119.690334 204 2152ft 0kts
15-May-18 17:36 34.942847 -119.690334 204 2152ft 0kts
15-May-18 17:37 34.942847 -119.690334 204 2152ft 0kts
15-May-18 17:38 34.942846 -119.690334 204 2152ft 0kts
15-May-18 17:39 34.942846 -119.690334 204 2152ft 0kts
15-May-18 17:40 34.942846 -119.690334 204 2152ft 0kts
15-May-18 17:41 34.942846 -119.690334 204 2152ft 0kts
15-May-18 17:42 34.942846 -119.690334 204 2152ft 0kts
15-May-18 17:43 34.942846 -119.690334 204 2152ft 0kts
15-May-18 17:44 34.942846 -119.690334 204 2152ft 0kts
15-May-18 17:45 34.942488 -119.691193 167 2151ft 1kts
15-May-18 17:46 34.938225 -119.681351 117 2197ft 49kts
15-May-18 17:47 34.940299 -119.686526 297 2184ft 77kts
15-May-18 17:48 34.951267 -119.711589 304 2847ft 86kts
15-May-18 17:49 34.963273 -119.736269 299 3442ft 87kts
15-May-18 17:50 34.974862 -119.762159 301 3983ft 89kts
15-May-18 17:51 34.986893 -119.788671 303 4619ft 90kts
15-May-18 17:52 34.999750 -119.815021 297 5190ft 94kts
15-May-18 17:53 35.008708 -119.846156 289 5494ft 104kts
15-May-18 17:54 35.019861 -119.877976 296 5922ft 101kts
15-May-18 17:55 35.031703 -119.909800 300 6297ft 103kts
15-May-18 17:56 35.045280 -119.942748 299 6296ft 113kts
15-May-18 17:57 35.057825 -119.973924 294 6479ft 95kts
15-May-18 17:58 35.066931 -120.005605 293 6504ft 102kts
15-May-18 17:59 35.078667 -120.037776 299 6440ft 105kts
15-May-18 18:00 35.092034 -120.069752 300 6312ft 103kts
15-May-18 18:01 35.104199 -120.098312 301 6300ft 98kts
15-May-18 18:02 35.114677 -120.126518 275 6402ft 92kts
15-May-18 18:03 35.118051 -120.158757 286 6587ft 99kts
15-May-18 18:04 35.122949 -120.194160 280 6655ft 109kts
15-May-18 18:05 35.128772 -120.230146 286 6569ft 117kts
15-May-18 18:06 35.139460 -120.268558 297 6332ft 118kts
15-May-18 18:07 35.152510 -120.301368 295 6100ft 102kts
15-May-18 18:08 35.161962 -120.332915 291 6131ft 97kts
15-May-18 18:09 35.168991 -120.364618 286 6247ft 97kts
15-May-18 18:10 35.176425 -120.396673 289 6365ft 97kts
15-May-18 18:11 35.184699 -120.427963 294 5893ft 94kts
15-May-18 18:12 35.193149 -120.457931 290 5184ft 95kts
15-May-18 18:13 35.199501 -120.491410 284 4055ft 106kts
15-May-18 18:14 35.202244 -120.527297 256 2601ft 114kts
15-May-18 18:15 35.199307 -120.562353 286 1494ft 88kts
15-May-18 18:16 35.208407 -120.591063 307 1331ft 90kts
15-May-18 18:17 35.222864 -120.615721 309 701ft 88kts
15-May-18 18:18 35.234913 -120.636802 310 187ft 63kts
15-May-18 18:19 35.239885 -120.643997 29 178ft 0kts
15-May-18 18:20 35.239895 -120.643990 23 178ft 0kts
15-May-18 18:21 35.239740 -120.643318 122 178ft 12kts
15-May-18 18:22 35.237623 -120.639591 112 178ft 17kts
15-May-18 18:23 35.237898 -120.637707 93 178ft 0kts
15-May-18 18:24 35.237898 -120.637707 93 178ft 0kts
15-May-18 18:25 35.237898 -120.637707 93 178ft 0kts
15-May-18 18:26 35.237898 -120.637707 93 178ft 0kts
15-May-18 18:27 35.237898 -120.637707 93 178ft 0kts
15-May-18 18:28 35.237898 -120.637707 93 178ft 0kts

Navigation Log

Ident Type
1. L88 Airport
2. KSBP Airport